Time;durP1;ratioP1;P1;durP2;ratioP2;P2;SDS_P1;SDS_P2;PMS_P1;PMS_P2;Temp;Humidity;BMP_temperature;BMP_pressure;BME280_temperature;BME280_humidity;BME280_pressure;Samples;Min_cycle;Max_cycle;Signal;HPM_P1;HPM_P2
2023/03/23 00:01:19;;;;;;;4.30;3.05;;;16.90;1.00;;;;;;5103803;28;20039;-48
2023/03/23 00:03:46;;;;;;;5.10;3.40;;;16.80;1.00;;;;;;5117764;27;20031;-52
2023/03/23 00:06:16;;;;;;;7.88;3.80;;;16.80;1.00;;;;;;5114255;28;20043;-52
2023/03/23 00:08:46;;;;;;;6.82;3.53;;;16.80;1.00;;;;;;5116376;27;20052;-48
2023/03/23 00:11:14;;;;;;;6.50;3.92;;;16.80;1.00;;;;;;5084710;28;20034;-52
2023/03/23 00:13:41;;;;;;;6.40;3.63;;;16.70;1.00;;;;;;5124794;27;20072;-51
2023/03/23 00:16:17;;;;;;;3.95;3.22;;;16.70;1.00;;;;;;5119288;27;20106;-51
2023/03/23 00:18:46;;;;;;;5.90;3.53;;;16.70;1.00;;;;;;5104779;27;20029;-49
2023/03/23 00:21:12;;;;;;;5.10;3.50;;;16.50;1.00;;;;;;5113199;27;20032;-50
2023/03/23 00:23:39;;;;;;;3.20;2.90;;;16.60;1.00;;;;;;5110300;27;20473;-49
2023/03/23 00:26:05;;;;;;;3.42;3.13;;;16.50;1.00;;;;;;5113948;27;20089;-52
2023/03/23 00:28:31;;;;;;;3.95;2.90;;;16.60;1.00;;;;;;5106886;28;20020;-51
2023/03/23 00:30:59;;;;;;;4.32;3.22;;;16.60;1.00;;;;;;5109312;27;20068;-51
2023/03/23 00:33:26;;;;;;;3.47;3.17;;;16.50;1.00;;;;;;5117453;27;20117;-52
2023/03/23 00:35:54;;;;;;;4.30;2.92;;;16.40;1.00;;;;;;5099759;28;20388;-53
2023/03/23 00:38:22;;;;;;;5.70;3.15;;;16.50;1.00;;;;;;5105546;27;20489;-52
2023/03/23 00:40:48;;;;;;;3.40;3.10;;;16.50;1.00;;;;;;5111509;28;20020;-51
2023/03/23 00:43:18;;;;;;;4.45;3.38;;;16.50;1.00;;;;;;5115469;28;20436;-53
2023/03/23 00:45:49;;;;;;;4.25;3.45;;;16.50;1.00;;;;;;5113265;27;20058;-50
2023/03/23 00:48:15;;;;;;;5.25;3.30;;;16.50;1.00;;;;;;5113088;28;20506;-53
2023/03/23 00:50:40;;;;;;;4.82;3.30;;;16.50;1.00;;;;;;5098648;28;20576;-52
2023/03/23 00:53:07;;;;;;;4.70;3.35;;;16.50;1.00;;;;;;5099391;28;20102;-53
2023/03/23 00:55:33;;;;;;;5.18;3.30;;;16.40;1.00;;;;;;5118346;27;20024;-51
2023/03/23 00:57:59;;;;;;;4.68;3.40;;;16.30;1.00;;;;;;5113212;28;20040;-50
2023/03/23 01:00:26;;;;;;;5.10;3.80;;;16.40;1.00;;;;;;5122986;28;20035;-50
2023/03/23 01:02:53;;;;;;;4.68;3.60;;;16.40;1.00;;;;;;5086640;28;20028;-52
2023/03/23 01:05:19;;;;;;;5.80;3.45;;;16.30;1.00;;;;;;5125046;28;20040;-52
2023/03/23 01:07:46;;;;;;;4.20;2.95;;;16.30;1.00;;;;;;5113605;28;20028;-52
2023/03/23 01:10:17;;;;;;;3.58;2.60;;;16.20;1.00;;;;;;5124983;28;20023;-52
2023/03/23 01:12:44;;;;;;;3.95;2.78;;;16.30;1.00;;;;;;5113464;28;20067;-51
2023/03/23 01:15:14;;;;;;;3.63;2.90;;;16.30;1.00;;;;;;5122009;28;20026;-51
2023/03/23 01:17:41;;;;;;;4.35;2.60;;;16.30;1.00;;;;;;5111108;28;20388;-52
2023/03/23 01:20:07;;;;;;;3.30;2.92;;;16.20;1.00;;;;;;5126650;27;20053;-51
2023/03/23 01:22:33;;;;;;;4.28;2.75;;;16.20;1.00;;;;;;5121729;27;20035;-52
2023/03/23 01:24:58;;;;;;;3.83;3.38;;;16.20;1.00;;;;;;5126302;27;20046;-50
2023/03/23 01:27:24;;;;;;;4.05;3.15;;;16.20;1.00;;;;;;5117364;28;20427;-49
2023/03/23 01:29:50;;;;;;;5.28;3.15;;;16.20;1.00;;;;;;5118848;27;20793;-53
2023/03/23 01:32:16;;;;;;;3.28;2.92;;;16.20;1.00;;;;;;5112767;28;20054;-53
2023/03/23 01:34:41;;;;;;;3.90;3.25;;;16.20;1.00;;;;;;5102080;27;20051;-50
2023/03/23 01:37:07;;;;;;;3.22;2.90;;;16.10;1.00;;;;;;5080767;28;20597;-49
2023/03/23 01:39:35;;;;;;;4.65;3.25;;;16.20;1.00;;;;;;5111464;27;20473;-49
2023/03/23 01:42:00;;;;;;;3.58;3.03;;;16.10;1.00;;;;;;5114092;28;20032;-52
2023/03/23 01:44:32;;;;;;;4.00;3.63;;;16.10;1.00;;;;;;5122021;27;20030;-50
2023/03/23 01:46:58;;;;;;;5.80;3.35;;;16.10;1.00;;;;;;5119319;27;20074;-51
2023/03/23 01:49:32;;;;;;;4.70;3.38;;;16.10;1.00;;;;;;5102139;28;20430;-49
2023/03/23 01:52:02;;;;;;;7.15;3.28;;;16.10;1.00;;;;;;5114770;27;20023;-52
2023/03/23 01:54:29;;;;;;;6.82;4.18;;;16.10;1.00;;;;;;5113888;27;20385;-48
2023/03/23 01:57:06;;;;;;;7.20;3.72;;;16.10;1.00;;;;;;5116488;28;20499;-48
2023/03/23 01:59:35;;;;;;;4.13;3.60;;;15.90;1.00;;;;;;5111413;27;20030;-50
2023/03/23 02:02:01;;;;;;;4.05;3.08;;;16.00;1.00;;;;;;5120375;27;20118;-52
2023/03/23 02:04:29;;;;;;;5.55;3.67;;;16.00;1.00;;;;;;5119701;27;20087;-50
2023/03/23 02:06:57;;;;;;;4.68;3.08;;;16.00;1.00;;;;;;5116560;28;20433;-52
2023/03/23 02:09:25;;;;;;;3.45;3.15;;;15.90;1.00;;;;;;5121505;27;20054;-50
2023/03/23 02:11:52;;;;;;;3.67;3.20;;;15.90;1.00;;;;;;5113542;28;20024;-50
2023/03/23 02:14:19;;;;;;;3.63;3.33;;;16.00;1.00;;;;;;5120949;27;20027;-49
2023/03/23 02:16:59;;;;;;;3.15;2.85;;;16.00;1.00;;;;;;5108598;27;20085;-51
2023/03/23 02:19:47;;;;;;;6.03;3.85;;;16.00;1.00;;;;;;5119912;27;20050;-50
2023/03/23 02:22:27;;;;;;;3.85;3.40;;;16.00;1.00;;;;;;5118966;27;20419;-48
2023/03/23 02:25:01;;;;;;;4.45;3.30;;;16.00;1.00;;;;;;5114442;27;20123;-47
2023/03/23 02:27:26;;;;;;;4.28;3.58;;;15.90;1.00;;;;;;5106394;27;20027;-53
2023/03/23 02:30:09;;;;;;;4.28;3.08;;;15.90;1.00;;;;;;5111335;27;20086;-52
2023/03/23 02:32:56;;;;;;;5.03;3.35;;;15.80;1.00;;;;;;5100559;28;20035;-49
2023/03/23 02:35:54;;;;;;;3.85;3.28;;;15.90;1.00;;;;;;5127053;27;20035;-47
2023/03/23 02:38:33;;;;;;;5.30;3.63;;;15.80;1.00;;;;;;5088851;28;20032;-51
2023/03/23 02:41:02;;;;;;;7.95;3.80;;;15.80;1.00;;;;;;5126122;27;20043;-51
2023/03/23 02:43:31;;;;;;;5.13;3.40;;;15.80;1.00;;;;;;5109996;28;20055;-49
2023/03/23 02:45:57;;;;;;;6.25;3.45;;;15.80;1.00;;;;;;5110676;28;20118;-49
2023/03/23 02:48:30;;;;;;;5.65;3.88;;;15.80;1.00;;;;;;5101806;28;20059;-48
2023/03/23 02:50:56;;;;;;;4.93;3.58;;;15.80;1.00;;;;;;5102461;28;20111;-46
2023/03/23 02:53:25;;;;;;;4.65;3.70;;;15.80;1.00;;;;;;5101993;27;20031;-48
2023/03/23 02:55:54;;;;;;;8.07;4.10;;;15.80;1.00;;;;;;5099832;28;20045;-51
2023/03/23 02:58:21;;;;;;;5.45;3.65;;;15.70;1.00;;;;;;5106078;27;20024;-48
2023/03/23 03:00:50;;;;;;;4.60;3.50;;;15.70;1.00;;;;;;5104253;27;20039;-47
2023/03/23 03:03:20;;;;;;;4.00;3.28;;;15.70;1.00;;;;;;5105600;28;20463;-48
2023/03/23 03:06:21;;;;;;;4.60;3.15;;;15.70;1.00;;;;;;5097983;28;20074;-46
2023/03/23 03:08:58;;;;;;;4.47;3.63;;;15.70;1.00;;;;;;5048525;28;20031;-48
2023/03/23 03:11:27;;;;;;;5.40;3.78;;;15.80;1.00;;;;;;5110700;28;20107;-46
2023/03/23 03:14:02;;;;;;;3.88;3.50;;;15.70;1.00;;;;;;5114358;27;20027;-50
2023/03/23 03:16:34;;;;;;;5.25;3.90;;;15.70;1.00;;;;;;5101241;28;20027;-50
2023/03/23 03:19:33;;;;;;;6.97;3.15;;;15.70;1.00;;;;;;5117556;27;20039;-47
2023/03/23 03:22:00;;;;;;;4.15;3.75;;;15.60;1.00;;;;;;5107086;28;20032;-46
2023/03/23 03:24:28;;;;;;;6.32;3.55;;;15.70;1.00;;;;;;5092606;28;20076;-47
2023/03/23 03:26:57;;;;;;;4.90;3.97;;;15.70;1.00;;;;;;5107814;28;20050;-47
2023/03/23 03:29:29;;;;;;;4.57;4.18;;;15.70;1.00;;;;;;5104425;28;20058;-47
2023/03/23 03:31:58;;;;;;;4.60;3.25;;;15.60;1.00;;;;;;5107179;27;20035;-48
2023/03/23 03:34:24;;;;;;;3.60;3.30;;;15.60;1.00;;;;;;5112774;28;20508;-47
2023/03/23 03:36:53;;;;;;;4.47;3.20;;;15.70;1.00;;;;;;5105961;27;20028;-48
2023/03/23 03:39:21;;;;;;;4.25;3.33;;;15.50;1.00;;;;;;5105941;28;20503;-46
2023/03/23 03:41:48;;;;;;;5.47;3.47;;;15.60;1.00;;;;;;5111511;27;20024;-49
2023/03/23 03:44:15;;;;;;;3.95;3.10;;;15.60;1.00;;;;;;5098163;28;20024;-47
2023/03/23 03:46:40;;;;;;;6.00;3.58;;;15.50;1.00;;;;;;5104788;27;20093;-46
2023/03/23 03:49:08;;;;;;;5.28;3.40;;;15.40;1.00;;;;;;5098423;28;20032;-47
2023/03/23 03:51:35;;;;;;;4.05;3.58;;;15.50;1.00;;;;;;5110907;27;20093;-48
2023/03/23 03:54:01;;;;;;;4.65;3.28;;;15.60;1.00;;;;;;5114912;27;20024;-47
2023/03/23 03:56:26;;;;;;;4.32;2.88;;;15.50;1.00;;;;;;5103446;28;20088;-48
2023/03/23 03:58:52;;;;;;;4.55;4.07;;;15.60;1.00;;;;;;5100555;28;20038;-49
2023/03/23 04:01:22;;;;;;;4.13;3.22;;;15.60;1.00;;;;;;5098339;28;20481;-48
2023/03/23 04:03:48;;;;;;;4.80;3.50;;;15.60;1.00;;;;;;5113008;27;20065;-47
2023/03/23 04:06:14;;;;;;;4.60;3.08;;;15.60;1.00;;;;;;5125264;27;20502;-49
2023/03/23 04:08:41;;;;;;;4.97;3.60;;;15.60;1.00;;;;;;5098058;27;20028;-48
2023/03/23 04:11:08;;;;;;;4.72;3.28;;;15.50;1.00;;;;;;5104900;27;20507;-47
2023/03/23 04:13:34;;;;;;;4.25;3.60;;;15.50;1.00;;;;;;5097451;27;20435;-50
2023/03/23 04:16:00;;;;;;;5.40;3.55;;;15.50;1.00;;;;;;5100785;28;20024;-49
2023/03/23 04:18:26;;;;;;;6.50;4.10;;;15.40;1.00;;;;;;5099510;27;20031;-49
2023/03/23 04:20:52;;;;;;;5.50;3.65;;;15.40;1.00;;;;;;5098015;27;20594;-48
2023/03/23 04:23:21;;;;;;;4.78;3.90;;;15.40;1.00;;;;;;5090698;28;20537;-48
2023/03/23 04:25:47;;;;;;;3.60;3.30;;;15.50;1.00;;;;;;5087092;28;20039;-47
2023/03/23 04:28:16;;;;;;;4.00;3.33;;;15.40;1.00;;;;;;5105546;27;20024;-49
2023/03/23 04:30:42;;;;;;;4.50;3.60;;;15.50;1.00;;;;;;5098974;28;20354;-49
2023/03/23 04:33:14;;;;;;;6.15;4.20;;;15.50;1.00;;;;;;5111097;28;20084;-47
2023/03/23 04:35:41;;;;;;;4.18;3.22;;;15.40;1.00;;;;;;5097111;28;20102;-48
2023/03/23 04:38:08;;;;;;;5.25;3.90;;;15.40;1.00;;;;;;5106810;28;20024;-50
2023/03/23 04:40:39;;;;;;;4.78;3.65;;;15.30;1.00;;;;;;5103398;27;20027;-47
2023/03/23 04:43:06;;;;;;;5.03;3.85;;;15.40;1.00;;;;;;5108657;28;20107;-47
2023/03/23 04:45:33;;;;;;;4.00;3.35;;;15.30;1.00;;;;;;5104617;28;20035;-49
2023/03/23 04:48:01;;;;;;;4.88;3.80;;;15.30;1.00;;;;;;5108055;28;20024;-52
2023/03/23 04:50:30;;;;;;;4.88;3.90;;;15.30;1.00;;;;;;5112155;27;20030;-51
2023/03/23 04:52:57;;;;;;;4.60;3.53;;;15.40;1.00;;;;;;5106984;28;20028;-49
2023/03/23 04:55:24;;;;;;;3.97;3.65;;;15.30;1.00;;;;;;5102103;28;20031;-47
2023/03/23 04:57:50;;;;;;;6.63;3.83;;;15.30;1.00;;;;;;5109999;28;20123;-50
2023/03/23 05:00:17;;;;;;;3.72;3.30;;;15.30;1.00;;;;;;5103918;28;20110;-50
2023/03/23 05:02:51;;;;;;;4.57;3.65;;;15.30;1.00;;;;;;5107338;28;20081;-49
2023/03/23 05:05:17;;;;;;;5.28;4.25;;;15.30;1.00;;;;;;5100235;28;20035;-48
2023/03/23 05:07:43;;;;;;;4.68;3.70;;;15.30;1.00;;;;;;5111817;28;20107;-49
2023/03/23 05:10:11;;;;;;;4.55;3.58;;;15.30;1.00;;;;;;5097782;28;20111;-53
2023/03/23 05:12:37;;;;;;;5.07;4.47;;;15.30;1.00;;;;;;5101382;28;20451;-49
2023/03/23 05:15:04;;;;;;;5.80;3.88;;;15.30;1.00;;;;;;5104036;28;20042;-50
2023/03/23 05:17:32;;;;;;;4.07;3.63;;;15.20;1.00;;;;;;5093780;28;20971;-52
2023/03/23 05:19:58;;;;;;;4.57;3.95;;;15.20;1.00;;;;;;5098530;28;20028;-53
2023/03/23 05:22:26;;;;;;;6.10;3.88;;;15.30;1.00;;;;;;5098130;28;20027;-48
2023/03/23 05:24:52;;;;;;;5.85;4.32;;;15.30;1.00;;;;;;5104094;28;20069;-50
2023/03/23 05:27:18;;;;;;;4.82;3.65;;;15.30;1.00;;;;;;5107492;28;20035;-52
2023/03/23 05:29:48;;;;;;;7.80;4.35;;;15.30;1.00;;;;;;5109894;28;20036;-51
2023/03/23 05:32:18;;;;;;;7.90;3.80;;;15.30;1.00;;;;;;5108071;28;20292;-46
2023/03/23 05:34:46;;;;;;;4.43;4.03;;;15.10;1.00;;;;;;5104678;28;20048;-46
2023/03/23 05:37:13;;;;;;;4.35;3.72;;;15.00;1.00;;;;;;5111630;28;20052;-52
2023/03/23 05:39:39;;;;;;;5.18;4.03;;;15.00;1.00;;;;;;5085797;28;20506;-48
2023/03/23 05:42:07;;;;;;;5.03;4.40;;;15.10;1.00;;;;;;5104355;28;20481;-48
2023/03/23 05:44:33;;;;;;;4.68;4.00;;;15.20;1.00;;;;;;5113524;28;20023;-47
2023/03/23 05:46:58;;;;;;;4.50;4.10;;;15.20;1.00;;;;;;5101092;28;20051;-48
2023/03/23 05:49:26;;;;;;;4.60;3.97;;;15.30;1.00;;;;;;5102076;28;20027;-49
2023/03/23 05:51:51;;;;;;;6.05;3.88;;;15.30;1.00;;;;;;5108380;28;20031;-48
2023/03/23 05:54:17;;;;;;;6.05;4.63;;;15.30;1.00;;;;;;5110633;28;20067;-48
2023/03/23 05:56:43;;;;;;;5.43;4.50;;;15.20;1.00;;;;;;5111277;28;20053;-46
2023/03/23 05:59:10;;;;;;;8.13;4.93;;;15.30;1.00;;;;;;5108547;28;20392;-46
2023/03/23 06:01:37;;;;;;;4.40;4.00;;;15.30;1.00;;;;;;5108118;28;20039;-47
2023/03/23 06:04:02;;;;;;;4.95;4.47;;;15.20;1.00;;;;;;5098015;28;20114;-47
2023/03/23 06:06:30;;;;;;;4.90;4.35;;;15.30;1.00;;;;;;5107365;27;20040;-49
2023/03/23 06:08:56;;;;;;;7.30;4.65;;;15.20;1.00;;;;;;5111427;28;20046;-52
2023/03/23 06:11:24;;;;;;;7.80;5.32;;;15.30;1.00;;;;;;5106124;27;20124;-48
2023/03/23 06:13:50;;;;;;;5.32;4.82;;;15.30;1.00;;;;;;5107101;27;20085;-51
2023/03/23 06:16:16;;;;;;;6.60;5.15;;;15.30;1.00;;;;;;5105962;28;20421;-51
2023/03/23 06:18:42;;;;;;;7.90;4.72;;;15.40;1.00;;;;;;5113018;27;20030;-52
2023/03/23 06:21:09;;;;;;;5.63;4.35;;;15.40;1.00;;;;;;5109196;27;20028;-54
2023/03/23 06:23:35;;;;;;;5.72;4.32;;;15.20;1.00;;;;;;5115053;27;20051;-52
2023/03/23 06:26:05;;;;;;;5.32;4.40;;;15.30;1.00;;;;;;5112578;27;20200;-49
2023/03/23 06:28:31;;;;;;;5.88;4.40;;;15.40;1.00;;;;;;5101653;27;20080;-49
2023/03/23 06:31:02;;;;;;;6.47;3.75;;;15.40;1.00;;;;;;5117370;27;20027;-49
2023/03/23 06:33:27;;;;;;;7.80;4.95;;;15.30;1.00;;;;;;5103356;27;20044;-48
2023/03/23 06:35:53;;;;;;;5.13;3.88;;;15.40;1.00;;;;;;5100432;28;20027;-49
2023/03/23 06:38:19;;;;;;;7.13;3.67;;;15.40;1.00;;;;;;5112132;27;20040;-48
2023/03/23 06:40:46;;;;;;;7.00;3.90;;;15.30;1.00;;;;;;5102930;28;20042;-51
2023/03/23 06:43:13;;;;;;;7.18;4.00;;;15.20;1.00;;;;;;5104254;28;20066;-51
2023/03/23 06:45:39;;;;;;;5.38;3.70;;;15.30;1.00;;;;;;5100860;27;20044;-46
2023/03/23 06:48:05;;;;;;;5.32;4.07;;;15.20;1.00;;;;;;5084505;28;20393;-47
2023/03/23 06:50:31;;;;;;;4.63;4.22;;;15.40;1.00;;;;;;5096408;28;20030;-48
2023/03/23 06:52:57;;;;;;;8.02;4.47;;;15.40;1.00;;;;;;5083790;27;20372;-50
2023/03/23 06:55:23;;;;;;;3.65;3.35;;;15.40;1.00;;;;;;5112660;27;20103;-47
2023/03/23 06:57:48;;;;;;;9.07;4.15;;;15.50;1.00;;;;;;5112523;28;20025;-47
2023/03/23 07:00:15;;;;;;;4.43;3.75;;;15.60;1.00;;;;;;5091480;28;20079;-51
2023/03/23 07:02:41;;;;;;;7.40;4.07;;;15.70;1.00;;;;;;5107960;28;20047;-48
2023/03/23 07:05:08;;;;;;;7.03;3.80;;;15.70;1.00;;;;;;5101212;27;20084;-48
2023/03/23 07:07:38;;;;;;;5.22;3.13;;;15.50;1.00;;;;;;5106027;28;20119;-47
2023/03/23 07:10:06;;;;;;;3.28;2.97;;;15.60;1.00;;;;;;5107195;27;20030;-53
2023/03/23 07:12:33;;;;;;;3.90;3.15;;;15.60;1.00;;;;;;5113513;28;21782;-47
2023/03/23 07:14:59;;;;;;;4.82;3.65;;;15.60;1.00;;;;;;5105596;27;20031;-50
2023/03/23 07:17:25;;;;;;;5.65;3.60;;;15.60;1.00;;;;;;5104575;28;20020;-48
2023/03/23 07:19:50;;;;;;;6.05;3.75;;;15.60;1.00;;;;;;5087931;28;20373;-48
2023/03/23 07:22:16;;;;;;;5.20;3.28;;;15.70;1.00;;;;;;5110336;28;20034;-51
2023/03/23 07:24:42;;;;;;;6.03;3.40;;;15.50;1.00;;;;;;5107123;28;20036;-48
2023/03/23 07:27:09;;;;;;;5.47;3.45;;;15.50;1.00;;;;;;5109361;28;20031;-49
2023/03/23 07:29:38;;;;;;;8.50;3.40;;;15.50;1.00;;;;;;5108245;28;20389;-48
2023/03/23 07:32:05;;;;;;;6.20;3.83;;;15.50;1.00;;;;;;5110556;28;20032;-49
2023/03/23 07:34:31;;;;;;;5.82;3.08;;;15.50;1.00;;;;;;5110344;28;20039;-49
2023/03/23 07:36:57;;;;;;;8.02;3.40;;;15.60;1.00;;;;;;5110984;28;20046;-47
2023/03/23 07:39:23;;;;;;;8.10;3.63;;;15.50;1.00;;;;;;5090255;28;20027;-47
2023/03/23 07:41:50;;;;;;;7.43;4.00;;;15.60;1.00;;;;;;5111018;28;20031;-48
2023/03/23 07:44:16;;;;;;;8.15;3.72;;;15.60;1.00;;;;;;5110279;28;20034;-53
2023/03/23 07:46:42;;;;;;;7.38;3.38;;;15.70;1.00;;;;;;5109869;28;20035;-48
2023/03/23 07:49:08;;;;;;;6.15;3.22;;;15.80;1.00;;;;;;5111126;28;20063;-48
2023/03/23 07:51:34;;;;;;;6.70;3.83;;;15.60;1.00;;;;;;5110823;28;20027;-48
2023/03/23 07:54:02;;;;;;;6.57;3.28;;;15.80;1.00;;;;;;5103583;28;20050;-50
2023/03/23 07:56:28;;;;;;;6.68;2.97;;;15.90;1.00;;;;;;5111858;28;20024;-47
2023/03/23 07:58:54;;;;;;;7.00;3.30;;;16.00;1.00;;;;;;5092631;28;20423;-50
2023/03/23 08:01:20;;;;;;;4.47;3.80;;;16.00;1.00;;;;;;5107505;28;20024;-50
2023/03/23 08:03:46;;;;;;;4.88;3.40;;;16.00;1.00;;;;;;5111414;28;20023;-51
2023/03/23 08:06:12;;;;;;;6.90;3.63;;;15.90;1.00;;;;;;5105960;28;20123;-49
2023/03/23 08:08:40;;;;;;;6.40;3.47;;;15.80;1.00;;;;;;5106162;28;20114;-48
2023/03/23 08:11:06;;;;;;;3.78;3.00;;;16.10;1.00;;;;;;5104364;28;20036;-48
2023/03/23 08:13:33;;;;;;;5.55;3.80;;;16.30;1.00;;;;;;5107868;28;20039;-50
2023/03/23 08:16:00;;;;;;;4.53;3.50;;;16.10;1.00;;;;;;5112408;28;20027;-48
2023/03/23 08:18:26;;;;;;;4.85;3.58;;;16.20;1.00;;;;;;5103966;28;20020;-46
2023/03/23 08:20:53;;;;;;;6.50;3.80;;;16.20;1.00;;;;;;5106103;28;20020;-47
2023/03/23 08:23:20;;;;;;;4.68;3.63;;;16.50;1.00;;;;;;5111482;28;20016;-45
2023/03/23 08:25:46;;;;;;;9.57;4.38;;;16.50;1.00;;;;;;5109830;28;20047;-46
2023/03/23 08:28:13;;;;;;;6.15;4.38;;;16.60;1.00;;;;;;5107734;28;20505;-49
2023/03/23 08:30:40;;;;;;;7.15;3.38;;;16.50;1.00;;;;;;5083142;28;20372;-54
2023/03/23 08:33:06;;;;;;;8.13;4.63;;;16.40;1.00;;;;;;5109187;28;20456;-57
2023/03/23 08:35:32;;;;;;;8.52;4.05;;;16.50;1.00;;;;;;5109660;28;20026;-53
2023/03/23 08:37:58;;;;;;;8.15;3.90;;;16.30;1.00;;;;;;5106504;28;20126;-60
2023/03/23 08:40:24;;;;;;;7.35;3.63;;;16.40;1.00;;;;;;5107971;28;20044;-56
2023/03/23 08:42:51;;;;;;;5.18;4.65;;;16.00;1.00;;;;;;5109757;28;20037;-56
2023/03/23 08:45:22;;;;;;;8.30;4.55;;;16.00;1.00;;;;;;5106912;28;20495;-53
2023/03/23 08:47:51;;;;;;;5.20;4.70;;;15.70;1.00;;;;;;5109036;28;20027;-57
2023/03/23 08:50:23;;;;;;;7.82;4.80;;;15.80;1.00;;;;;;5099012;28;20051;-52
2023/03/23 08:52:49;;;;;;;7.55;5.60;;;15.70;1.00;;;;;;5103316;28;20028;-49
2023/03/23 08:55:17;;;;;;;10.48;5.35;;;15.70;1.00;;;;;;5107147;28;20077;-48
2023/03/23 08:57:43;;;;;;;7.07;5.35;;;15.70;1.00;;;;;;5107723;28;20024;-60
2023/03/23 09:00:15;;;;;;;6.60;5.30;;;15.70;1.00;;;;;;5110988;28;20034;-60
2023/03/23 09:02:47;;;;;;;8.70;5.07;;;15.60;1.00;;;;;;5103761;28;20016;-54
2023/03/23 09:05:14;;;;;;;9.55;5.25;;;15.70;1.00;;;;;;5108403;28;20111;-47
2023/03/23 09:07:43;;;;;;;9.32;5.63;;;15.60;1.00;;;;;;5108587;28;20024;-49
2023/03/23 09:10:09;;;;;;;6.25;5.32;;;15.80;1.00;;;;;;5109719;28;20058;-51
2023/03/23 09:12:35;;;;;;;9.48;4.43;;;15.80;1.00;;;;;;5104567;28;20438;-53
2023/03/23 09:15:08;;;;;;;5.90;5.00;;;15.80;1.00;;;;;;5108128;28;20046;-48
2023/03/23 09:17:50;;;;;;;5.85;4.45;;;15.80;1.00;;;;;;5110323;28;20028;-50
2023/03/23 09:20:20;;;;;;;6.43;5.28;;;15.90;1.00;;;;;;5088548;28;20028;-46
2023/03/23 09:22:49;;;;;;;11.52;5.22;;;15.90;1.00;;;;;;5106981;28;20027;-48
2023/03/23 09:25:18;;;;;;;8.63;3.95;;;16.10;1.00;;;;;;5103366;28;20023;-46
2023/03/23 09:27:46;;;;;;;6.07;4.20;;;15.90;1.00;;;;;;5105142;28;20512;-46
2023/03/23 09:30:14;;;;;;;7.28;4.78;;;16.10;1.00;;;;;;5106663;28;20031;-50
2023/03/23 09:32:41;;;;;;;7.05;3.92;;;16.10;1.00;;;;;;5109836;28;20032;-45
2023/03/23 09:35:11;;;;;;;5.60;4.47;;;16.20;1.00;;;;;;5111228;28;20035;-49
2023/03/23 09:37:39;;;;;;;5.68;4.65;;;16.20;1.00;;;;;;5102344;28;20024;-44
2023/03/23 09:40:30;;;;;;;6.97;4.18;;;16.30;1.00;;;;;;5109302;28;20027;-44
2023/03/23 09:43:07;;;;;;;9.52;4.97;;;16.40;1.00;;;;;;5059796;28;20043;-45
2023/03/23 09:45:58;;;;;;;5.07;4.45;;;16.40;1.00;;;;;;5112754;28;20485;-47
2023/03/23 09:48:38;;;;;;;6.57;4.63;;;16.50;1.00;;;;;;5110628;28;20481;-47
2023/03/23 09:51:24;;;;;;;6.45;4.43;;;16.50;1.00;;;;;;5114028;28;20035;-48
2023/03/23 09:54:00;;;;;;;7.10;4.80;;;16.60;1.00;;;;;;5113939;28;20016;-44
2023/03/23 09:56:29;;;;;;;7.22;5.20;;;16.70;1.00;;;;;;5110306;28;20027;-43
2023/03/23 09:59:00;;;;;;;6.30;4.97;;;16.50;1.00;;;;;;5113906;28;20157;-43
2023/03/23 10:01:51;;;;;;;5.88;5.28;;;16.70;1.00;;;;;;5113087;28;20111;-43
2023/03/23 10:04:46;;;;;;;9.75;5.82;;;16.80;1.00;;;;;;5111751;28;20016;-46
2023/03/23 10:07:12;;;;;;;7.35;6.43;;;16.90;1.00;;;;;;5090623;28;20048;-47
2023/03/23 10:09:38;;;;;;;7.95;5.97;;;16.90;1.00;;;;;;5107755;28;20028;-48
2023/03/23 10:12:20;;;;;;;6.25;5.65;;;17.00;1.00;;;;;;5110338;28;20427;-50
2023/03/23 10:14:46;;;;;;;8.23;6.25;;;17.00;1.00;;;;;;5110158;28;20031;-46
2023/03/23 10:17:33;;;;;;;9.55;6.25;;;17.10;1.00;;;;;;5110226;28;20023;-49
2023/03/23 10:19:58;;;;;;;9.85;8.02;;;17.10;1.00;;;;;;5092362;28;20685;-53
2023/03/23 10:22:33;;;;;;;7.15;6.45;;;17.20;1.00;;;;;;5103354;28;20025;-54
2023/03/23 10:25:14;;;;;;;6.90;6.20;;;17.20;1.00;;;;;;5110496;28;20031;-49
2023/03/23 10:28:04;;;;;;;10.10;7.00;;;17.30;1.00;;;;;;5109958;28;20380;-47
2023/03/23 10:30:37;;;;;;;7.05;6.35;;;17.30;1.00;;;;;;5097984;28;20039;-51
2023/03/23 10:33:11;;;;;;;7.45;6.60;;;17.30;1.00;;;;;;5112863;28;20564;-46
2023/03/23 10:36:01;;;;;;;11.95;6.60;;;17.40;1.00;;;;;;5114499;28;20115;-44
2023/03/23 10:38:37;;;;;;;10.82;6.90;;;17.40;1.00;;;;;;5110186;28;20114;-46
2023/03/23 10:41:18;;;;;;;10.20;7.60;;;17.40;1.00;;;;;;5107622;28;20040;-47
2023/03/23 10:43:49;;;;;;;9.35;7.75;;;17.50;1.00;;;;;;5104848;28;20058;-47
2023/03/23 10:46:41;;;;;;;11.30;7.95;;;17.60;1.00;;;;;;5109083;28;20051;-48
2023/03/23 10:49:11;;;;;;;7.68;6.97;;;17.70;1.00;;;;;;5108876;28;20131;-52
2023/03/23 10:51:41;;;;;;;10.07;6.93;;;17.80;1.00;;;;;;5105950;28;20069;-50
2023/03/23 10:54:07;;;;;;;9.75;7.00;;;17.90;1.00;;;;;;5104951;28;20039;-50
2023/03/23 10:56:44;;;;;;;8.55;7.63;;;18.00;1.00;;;;;;5110772;28;20103;-52
2023/03/23 10:59:21;;;;;;;11.50;8.55;;;18.20;1.00;;;;;;5109372;28;20027;-55
2023/03/23 11:01:52;;;;;;;11.13;8.32;;;18.30;1.00;;;;;;5105965;28;20132;-49
2023/03/23 11:04:19;;;;;;;9.65;8.65;;;18.30;1.00;;;;;;5107590;28;20113;-50
2023/03/23 11:06:52;;;;;;;11.95;9.40;;;18.40;1.00;;;;;;5107357;28;20534;-51
2023/03/23 11:09:20;;;;;;;11.82;9.10;;;18.40;1.00;;;;;;5109001;28;20024;-49
2023/03/23 11:11:54;;;;;;;9.27;8.32;;;18.50;1.00;;;;;;5109715;28;20028;-52
2023/03/23 11:14:34;;;;;;;13.35;9.82;;;18.60;1.00;;;;;;5107378;28;20038;-48
2023/03/23 11:17:04;;;;;;;18.40;8.98;;;18.70;1.00;;;;;;5111745;28;20525;-48
2023/03/23 11:19:32;;;;;;;12.93;9.18;;;19.00;1.00;;;;;;5113529;28;20047;-47
2023/03/23 11:22:04;;;;;;;11.13;9.43;;;19.00;1.00;;;;;;5109507;28;20418;-47
2023/03/23 11:24:43;;;;;;;11.45;9.27;;;19.00;1.00;;;;;;5109155;28;20028;-44
2023/03/23 11:27:09;;;;;;;11.20;8.60;;;19.20;1.00;;;;;;5108483;28;20050;-45
2023/03/23 11:29:41;;;;;;;14.07;9.40;;;19.40;1.00;;;;;;5104637;28;20111;-45
2023/03/23 11:32:12;;;;;;;9.45;8.50;;;19.40;1.00;;;;;;5106375;28;20027;-49
2023/03/23 11:34:45;;;;;;;12.95;9.13;;;19.40;1.00;;;;;;5109787;28;20032;-42
2023/03/23 11:37:33;;;;;;;11.80;9.93;;;19.50;1.00;;;;;;5109930;28;20024;-50
2023/03/23 11:40:25;;;;;;;11.77;9.63;;;19.90;1.00;;;;;;5096060;28;20086;-45
2023/03/23 11:42:58;;;;;;;13.07;9.73;;;20.20;1.00;;;;;;5109667;28;20430;-50
2023/03/23 11:46:08;;;;;;;11.68;10.07;;;20.20;1.00;;;;;;5106071;28;20039;-47
2023/03/23 11:48:45;;;;;;;14.10;12.13;;;20.20;1.00;;;;;;5033907;28;20451;-45
2023/03/23 11:51:20;;;;;;;13.38;10.48;;;19.90;1.00;;;;;;5101166;28;20027;-51
2023/03/23 11:54:26;;;;;;;12.82;10.32;;;19.80;1.00;;;;;;5108437;28;20370;-46
2023/03/23 11:56:52;;;;;;;12.25;9.65;;;19.90;1.00;;;;;;5092661;28;20046;-45
2023/03/23 11:59:26;;;;;;;13.10;10.27;;;19.80;1.00;;;;;;5088949;28;20028;-44
2023/03/23 12:02:13;;;;;;;13.10;10.32;;;19.80;1.00;;;;;;5103755;28;20054;-44
2023/03/23 12:04:53;;;;;;;12.35;10.30;;;20.00;1.00;;;;;;5108561;28;20064;-45
2023/03/23 12:07:31;;;;;;;15.10;11.90;;;20.10;1.00;;;;;;5101935;28;20484;-51
2023/03/23 12:10:33;;;;;;;12.52;11.25;;;20.30;1.00;;;;;;5109243;28;20434;-54
2023/03/23 12:13:29;;;;;;;17.73;11.90;;;20.50;1.00;;;;;;5011201;28;20650;-48
2023/03/23 12:16:10;;;;;;;12.48;11.27;;;20.60;1.00;;;;;;5104994;28;20032;-50
2023/03/23 12:19:14;;;;;;;13.07;11.07;;;20.70;1.00;;;;;;5107267;28;20027;-53
2023/03/23 12:22:01;;;;;;;12.88;11.35;;;20.90;1.00;;;;;;5044723;28;20259;-50
2023/03/23 12:24:46;;;;;;;14.00;11.35;;;21.00;1.00;;;;;;5105037;28;20020;-51
2023/03/23 12:27:30;;;;;;;12.95;11.57;;;21.20;1.00;;;;;;5109214;28;20031;-49
2023/03/23 12:30:08;;;;;;;12.00;10.80;;;21.50;1.00;;;;;;5107036;28;20027;-55
2023/03/23 12:32:49;;;;;;;11.45;10.25;;;21.60;1.00;;;;;;5110026;28;20394;-56
2023/03/23 12:35:28;;;;;;;12.60;11.30;;;21.80;1.00;;;;;;5105858;28;20064;-50
2023/03/23 12:38:06;;;;;;;12.85;10.82;;;21.80;1.00;;;;;;5108368;28;20524;-49
2023/03/23 12:40:56;;;;;;;13.02;11.18;;;22.00;1.00;;;;;;5110249;28;20102;-49
2023/03/23 12:43:49;;;;;;;11.07;9.98;;;22.20;1.00;;;;;;5106671;28;20047;-55
2023/03/23 12:46:21;;;;;;;14.00;11.23;;;26.00;1.00;;;;;;5106321;28;20060;-55
2023/03/23 12:49:17;;;;;;;12.93;9.57;;;29.10;1.00;;;;;;5105652;28;20020;-50
2023/03/23 12:52:04;;;;;;;13.40;10.30;;;30.00;99.90;;;;;;5106675;28;20028;-51
2023/03/23 12:54:33;;;;;;;10.48;9.48;;;31.80;99.90;;;;;;5107962;28;20066;-58
2023/03/23 12:57:27;;;;;;;10.00;9.13;;;32.90;99.90;;;;;;5109263;28;20028;-54
2023/03/23 13:00:02;;;;;;;10.80;8.85;;;35.00;99.90;;;;;;5096241;28;20032;-46
2023/03/23 13:02:38;;;;;;;11.02;9.13;;;37.00;99.90;;;;;;5091818;28;20031;-45
2023/03/23 13:05:06;;;;;;;9.73;8.63;;;37.00;99.90;;;;;;5110121;28;20031;-47
2023/03/23 13:07:43;;;;;;;10.70;9.60;;;37.80;99.90;;;;;;5111583;28;20354;-48
2023/03/23 13:10:21;;;;;;;9.02;8.13;;;38.20;99.90;;;;;;5103036;28;20092;-45
2023/03/23 13:12:48;;;;;;;9.77;9.00;;;38.50;99.90;;;;;;5086368;28;20468;-49
2023/03/23 13:15:51;;;;;;;10.63;9.60;;;38.60;99.90;;;;;;5111310;28;20073;-44